Carbondale, Colorado
Current Conditions -  °F | °C
As of 11:18 AM on Tuesday 21 Oct 2014 (Local Time) from K5SM Reporting Station
Overcast Overcast  
Wind Chill: 46°   Ceiling: 2300
Heat Index: 46°   Visibility: 10mi
Dew Point: 39°   Wind: 0mph
Humidity: 76%   Direction: NA
Pressure: 30.34"   Gusts: NA
Location:  39.4°N, 107.21°W
Report Text: K5SM 211718Z AUTO 00000KT 10SM SCT016 BKN023 OVC075 08/04 A3034 RMK AO2
Loading
Personal Weather Stations






























Interactive Weather Map
Tropical Storm Tracking
New forecast layout! Learn more

10-Day Weather Forecast

Advertisements
Track Severe Weather on mobile